Time;durP1;ratioP1;P1;durP2;ratioP2;P2;SDS_P1;SDS_P2;PMS_P1;PMS_P2;Temp;Humidity;BMP_temperature;BMP_pressure;BME280_temperature;BME280_humidity;BME280_pressure;Samples;Min_cycle;Max_cycle;Signal;HPM_P1;HPM_P2
2022/04/07 03:32:21;;;;;;;;;;;;;;;6.76;100.00;97786.63;4944873;29;19930;-78
2022/04/07 03:34:46;;;;;;;;;;;;;;;6.82;100.00;97796.81;4943889;29;19923;-79
2022/04/07 03:37:11;;;;;;;;;;;;;;;6.78;100.00;97776.84;4944411;29;20553;-78
2022/04/07 03:39:37;;;;;;;;;;;;;;;6.80;100.00;97782.91;4945127;29;19918;-78
2022/04/07 03:42:02;;;;;;;;;;;;;;;6.82;100.00;97771.31;4944461;29;20537;-77
2022/04/07 03:44:27;;;;;;;;;;;;;;;6.82;100.00;97767.84;4958332;28;19977;-79
2022/04/07 03:46:53;;;;;;;;;;;;;;;6.87;100.00;97774.50;4944533;29;19945;-78
2022/04/07 03:49:18;;;;;;;;;;;;;;;6.85;100.00;97765.03;4951631;29;19926;-77
2022/04/07 03:51:43;;;;;;;;;;;;;;;6.85;100.00;97760.59;4944614;29;19957;-79
2022/04/07 03:54:09;;;;;;;;;;;;;;;6.86;100.00;97758.81;4944648;28;19918;-78
2022/04/07 03:56:34;;;;;;;;;;;;;;;6.83;100.00;97766.88;4939349;29;19978;-78
2022/04/07 03:58:59;;;;;;;;;;;;;;;6.00;100.00;97757.63;4943427;29;20286;-78
2022/04/07 04:01:25;;;;;;;;;;;;;;;5.82;100.00;97761.25;4944453;29;20388;-78
2022/04/07 04:03:51;;;;;;;;;;;;;;;5.74;100.00;97750.31;4944548;29;19966;-79
2022/04/07 04:06:16;;;;;;;;;;;;;;;5.58;100.00;97745.91;4945151;29;19927;-80
2022/04/07 04:08:41;;;;;;;;;;;;;;;5.49;100.00;97756.94;4944721;29;19972;-80
2022/04/07 04:11:06;;;;;;;;;;;;;;;5.42;100.00;97751.13;4944588;29;19919;-79
2022/04/07 04:13:32;;;;;;;;;;;;;;;5.33;100.00;97741.16;4949910;29;19918;-79
2022/04/07 04:15:58;;;;;;;;;;;;;;;5.26;100.00;97735.38;4943328;29;20336;-79
2022/04/07 04:18:23;;;;;;;;;;;;;;;5.20;100.00;97719.97;4942865;29;19919;-79
2022/04/07 04:20:49;;;;;;;;;;;;;;;5.14;100.00;97719.41;4944258;29;19922;-79
2022/04/07 04:23:14;;;;;;;;;;;;;;;5.11;100.00;97714.38;4944705;29;19925;-80
2022/04/07 04:25:39;;;;;;;;;;;;;;;5.09;100.00;97714.44;4943089;29;19923;-80
2022/04/07 04:28:04;;;;;;;;;;;;;;;5.02;100.00;97723.56;4942429;29;19941;-79
2022/04/07 08:02:04;;;;;;;;;;;;;;;4.25;93.37;97347.38;4943187;28;19997;-79
2022/04/07 08:04:30;;;;;;;;;;;;;;;4.25;93.43;97350.00;4941970;29;19927;-82
2022/04/07 08:06:55;;;;;;;;;;;;;;;4.17;92.97;97345.19;4943180;29;20297;-78
2022/04/07 08:09:20;;;;;;;;;;;;;;;4.22;92.96;97337.06;4943336;29;19951;-82
2022/04/07 08:11:45;;;;;;;;;;;;;;;4.23;93.13;97334.38;4944190;29;20338;-81
2022/04/07 08:14:11;;;;;;;;;;;;;;;4.22;93.38;97324.81;4941895;29;19923;-82
2022/04/07 08:16:37;;;;;;;;;;;;;;;4.22;93.63;97311.69;4943399;29;19938;-77
2022/04/07 08:19:02;;;;;;;;;;;;;;;4.21;93.25;97328.34;4937377;29;19981;-83
2022/04/07 08:21:28;;;;;;;;;;;;;;;4.23;93.05;97329.13;4941900;29;20013;-81
2022/04/07 08:23:53;;;;;;;;;;;;;;;4.28;93.47;97324.47;4941686;28;19923;-81
2022/04/07 08:26:19;;;;;;;;;;;;;;;4.21;93.19;97315.25;4944361;29;19985;-82
2022/04/07 08:28:44;;;;;;;;;;;;;;;4.27;93.51;97314.06;4942081;29;19926;-81
2022/04/07 08:31:09;;;;;;;;;;;;;;;4.23;93.11;97312.53;4944019;29;19919;-81
2022/04/07 08:33:34;;;;;;;;;;;;;;;4.22;92.83;97297.75;4943988;29;19922;-82
2022/04/07 08:36:00;;;;;;;;;;;;;;;4.21;92.67;97296.06;4942831;29;19922;-81
2022/04/07 08:38:25;;;;;;;;;;;;;;;4.23;93.08;97305.53;4943267;28;19966;-83
2022/04/07 08:40:51;;;;;;;;;;;;;;;4.28;93.45;97290.38;4943409;29;20500;-82
2022/04/07 08:43:17;;;;;;;;;;;;;;;4.21;93.18;97310.00;4943371;29;19927;-81
2022/04/07 08:45:43;;;;;;;;;;;;;;;4.25;93.21;97315.94;4941670;29;20328;-82
2022/04/07 08:48:10;;;;;;;;;;;;;;;4.28;93.34;97315.75;4941464;29;20350;-83
2022/04/07 08:50:37;;;;;;;;;;;;;;;4.35;94.02;97306.59;4940190;29;19978;-82
2022/04/07 08:53:02;;;;;;;;;;;;;;;4.34;94.34;97304.91;4943321;29;19941;-83
2022/04/07 08:55:27;;;;;;;;;;;;;;;4.35;94.70;97298.75;4941403;29;19923;-81
2022/04/07 08:57:53;;;;;;;;;;;;;;;4.40;95.23;97288.81;4940585;29;19938;-83
2022/04/07 09:00:18;;;;;;;;;;;;;;;4.47;95.37;97299.81;4939090;29;20441;-81
2022/04/07 09:02:43;;;;;;;;;;;;;;;4.45;95.86;97294.66;4941101;29;19929;-83
2022/04/07 09:05:12;;;;;;;;;;;;;;;4.45;95.79;97297.28;4940945;29;19934;-80
2022/04/07 09:07:38;;;;;;;;;;;;;;;4.44;95.74;97273.78;4940431;29;20008;-83
2022/04/07 09:10:04;;;;;;;;;;;;;;;4.40;95.53;97270.47;4940485;29;20022;-83
2022/04/07 09:12:29;;;;;;;;;;;;;;;4.39;95.05;97281.03;4939379;29;20293;-82
2022/04/07 09:14:56;;;;;;;;;;;;;;;4.33;94.72;97277.00;4941816;29;19918;-83
2022/04/07 09:17:23;;;;;;;;;;;;;;;4.36;94.72;97272.44;4941664;29;19919;-82
2022/04/07 09:19:49;;;;;;;;;;;;;;;4.40;94.95;97265.22;4942665;29;19966;-83
2022/04/07 09:22:14;;;;;;;;;;;;;;;4.36;94.63;97266.34;4940205;29;19926;-83
2022/04/07 09:24:40;;;;;;;;;;;;;;;4.45;95.31;97254.47;4941374;29;19931;-82
2022/04/07 09:27:09;;;;;;;;;;;;;;;4.40;95.25;97244.25;4940943;29;19970;-81
2022/04/07 09:29:41;;;;;;;;;;;;;;;4.42;95.25;97224.03;4939984;29;20390;-82
2022/04/07 09:32:17;;;;;;;;;;;;;;;4.43;95.16;97233.59;4942675;29;20365;-82
2022/04/07 09:34:43;;;;;;;;;;;;;;;4.39;94.88;97236.47;4942063;29;20009;-80
2022/04/07 09:37:09;;;;;;;;;;;;;;;4.42;94.91;97234.53;4943205;29;20006;-81
2022/04/07 09:39:39;;;;;;;;;;;;;;;4.41;95.17;97232.84;4945514;29;19918;-83
2022/04/07 09:42:17;;;;;;;;;;;;;;;4.45;95.25;97223.88;4945775;29;19927;-82
2022/04/07 09:44:43;;;;;;;;;;;;;;;4.49;95.67;97224.53;4943271;29;20025;-82
2022/04/07 09:47:11;;;;;;;;;;;;;;;4.50;95.73;97208.69;4944778;29;20013;-83
2022/04/07 09:49:37;;;;;;;;;;;;;;;4.53;95.94;97207.66;4943248;29;19930;-82
2022/04/07 09:52:03;;;;;;;;;;;;;;;4.54;96.11;97212.81;4946341;29;19922;-81
2022/04/07 09:54:29;;;;;;;;;;;;;;;4.47;95.73;97211.50;4943680;29;19929;-83
2022/04/07 09:56:55;;;;;;;;;;;;;;;4.46;95.52;97208.97;4944252;29;19926;-81
2022/04/07 09:59:20;;;;;;;;;;;;;;;4.47;95.38;97206.25;4943955;29;19996;-80
2022/04/07 10:01:48;;;;;;;;;;;;;;;4.52;95.50;97204.19;4883963;29;1816552;-82
2022/04/07 10:04:14;;;;;;;;;;;;;;;4.54;95.55;97194.44;4946200;28;20005;-82
2022/04/07 10:06:39;;;;;;;;;;;;;;;4.50;95.47;97190.34;4944676;29;20001;-81
2022/04/07 10:09:07;;;;;;;;;;;;;;;4.55;95.63;97193.53;4944853;29;19927;-83
2022/04/07 10:11:32;;;;;;;;;;;;;;;4.58;95.71;97178.53;4946855;28;19922;-83
2022/04/07 10:13:58;;;;;;;;;;;;;;;4.60;96.04;97195.03;4945229;29;19941;-80
2022/04/07 10:16:24;;;;;;;;;;;;;;;4.68;96.57;97187.56;4944595;29;19922;-78
2022/04/07 10:18:54;;;;;;;;;;;;;;;4.59;96.19;97183.69;4946003;29;19930;-79
2022/04/07 10:21:29;;;;;;;;;;;;;;;4.58;96.06;97192.50;4944155;28;19966;-82
2022/04/07 10:24:07;;;;;;;;;;;;;;;4.52;95.49;97196.34;4958880;28;20294;-80
2022/04/07 10:26:33;;;;;;;;;;;;;;;4.54;95.13;97194.44;4928870;29;19919;-80
2022/04/07 10:28:59;;;;;;;;;;;;;;;4.58;95.00;97179.41;4942993;29;19919;-78
2022/04/07 10:31:25;;;;;;;;;;;;;;;4.59;95.13;97180.22;4946458;29;20321;-77
2022/04/07 10:33:50;;;;;;;;;;;;;;;4.53;95.17;97153.44;4960646;28;19925;-79
2022/04/07 10:36:20;;;;;;;;;;;;;;;4.57;95.25;97145.41;4943187;29;19923;-81
2022/04/07 10:38:50;;;;;;;;;;;;;;;4.57;95.25;97159.34;4945197;29;19952;-82
2022/04/07 10:41:51;;;;;;;;;;;;;;;4.55;95.16;97148.94;4943784;29;19919;-82
2022/04/07 10:44:18;;;;;;;;;;;;;;;4.55;95.19;97148.94;4884686;29;19952;-81
2022/04/07 10:46:43;;;;;;;;;;;;;;;4.56;95.45;97152.41;4928100;29;19919;-81
2022/04/07 10:49:12;;;;;;;;;;;;;;;4.53;95.15;97153.44;4944723;29;20001;-81
2022/04/07 10:51:42;;;;;;;;;;;;;;;4.57;95.25;97154.09;4945472;29;19969;-82
2022/04/07 10:54:08;;;;;;;;;;;;;;;4.60;95.55;97146.03;4943890;29;19923;-83
2022/04/07 10:56:38;;;;;;;;;;;;;;;4.60;95.63;97142.59;4942449;29;19926;-81
2022/04/07 10:59:09;;;;;;;;;;;;;;;4.69;96.33;97121.03;4943126;29;19974;-83
2022/04/07 11:01:37;;;;;;;;;;;;;;;4.66;96.15;97142.19;4944425;29;19922;-81
2022/04/07 11:07:02;;;;;;;;;;;;;;;4.59;95.66;97148.75;4945097;29;19918;-79
2022/04/07 11:09:39;;;;;;;;;;;;;;;4.62;95.63;97136.28;4945057;29;20413;-81
2022/04/07 11:12:08;;;;;;;;;;;;;;;4.67;95.86;97121.13;4941945;29;19979;-83
2022/04/07 11:14:34;;;;;;;;;;;;;;;4.62;95.43;97124.97;4940023;29;19970;-82
2022/04/07 11:17:00;;;;;;;;;;;;;;;4.66;95.40;97131.69;4945229;29;19919;-83
2022/04/07 11:19:32;;;;;;;;;;;;;;;4.64;95.18;97129.19;4956935;28;20370;-82
2022/04/07 11:22:07;;;;;;;;;;;;;;;4.70;95.38;97110.44;4943271;29;19922;-81
2022/04/07 11:24:34;;;;;;;;;;;;;;;4.70;95.72;97118.31;4944448;29;19923;-83
2022/04/07 11:27:19;;;;;;;;;;;;;;;4.68;95.79;97109.69;4927431;29;20366;-83
2022/04/07 11:30:00;;;;;;;;;;;;;;;4.75;96.16;97114.56;4941929;29;19923;-83
2022/04/07 11:32:26;;;;;;;;;;;;;;;4.66;95.71;97105.47;4945098;29;20022;-81
2022/04/07 11:34:51;;;;;;;;;;;;;;;4.62;95.43;97124.97;4945174;29;19998;-83
2022/04/07 11:37:19;;;;;;;;;;;;;;;4.60;95.12;97104.09;4944534;29;19927;-81
2022/04/07 11:39:45;;;;;;;;;;;;;;;4.60;94.95;97095.38;4943563;29;20417;-83
2022/04/07 11:42:11;;;;;;;;;;;;;;;4.60;94.63;97084.88;4943915;29;19927;-82
2022/04/07 11:44:36;;;;;;;;;;;;;;;4.64;95.02;97105.59;4941159;29;20281;-81
2022/04/07 11:47:02;;;;;;;;;;;;;;;4.59;95.08;97097.13;4943839;29;19938;-82
2022/04/07 11:49:28;;;;;;;;;;;;;;;4.63;95.44;97093.41;4941122;29;19925;-82
2022/04/07 11:51:54;;;;;;;;;;;;;;;4.70;95.60;97091.25;4942815;29;19923;-80
2022/04/07 11:54:20;;;;;;;;;;;;;;;4.63;95.41;97095.19;4942978;29;19927;-83
2022/04/07 11:56:46;;;;;;;;;;;;;;;4.63;95.29;97080.28;4943983;28;19918;-81
2022/04/07 11:59:12;;;;;;;;;;;;;;;4.65;95.34;97078.41;4942703;29;19973;-82
2022/04/07 12:01:39;;;;;;;;;;;;;;;4.70;95.68;97083.38;4942523;28;19922;-83
2022/04/07 12:04:05;;;;;;;;;;;;;;;4.67;95.51;97088.81;4942069;29;19996;-81
2022/04/07 12:06:32;;;;;;;;;;;;;;;4.65;95.42;97082.81;4944406;29;19966;-82
2022/04/07 12:08:58;;;;;;;;;;;;;;;4.72;95.77;97076.25;4944490;29;20405;-82
2022/04/07 12:11:24;;;;;;;;;;;;;;;4.71;95.63;97087.69;4943701;28;19923;-80
2022/04/07 12:13:50;;;;;;;;;;;;;;;4.65;95.27;97081.03;4941964;29;19954;-82
2022/04/07 12:16:16;;;;;;;;;;;;;;;4.67;95.39;97096.69;4943669;29;20293;-82
2022/04/07 12:18:41;;;;;;;;;;;;;;;4.73;95.59;97093.69;4941637;29;19926;-80
2022/04/07 12:21:09;;;;;;;;;;;;;;;4.71;95.64;97100.81;4944167;29;20061;-82
2022/04/07 12:23:36;;;;;;;;;;;;;;;4.70;95.44;97101.72;4942900;28;19969;-83
2022/04/07 12:26:02;;;;;;;;;;;;;;;4.70;95.46;97099.09;4942950;29;19929;-80
2022/04/07 12:28:32;;;;;;;;;;;;;;;4.65;95.28;97102.00;4942429;29;19927;-82
2022/04/07 12:30:57;;;;;;;;;;;;;;;4.61;94.86;97097.03;4940648;29;19923;-83
2022/04/07 12:33:36;;;;;;;;;;;;;;;4.65;94.68;97107.25;4942483;29;19930;-83
2022/04/07 12:36:01;;;;;;;;;;;;;;;4.66;94.99;97087.97;4942620;29;19973;-84
2022/04/07 12:38:26;;;;;;;;;;;;;;;4.67;95.02;97094.06;4942027;28;20024;-82
2022/04/07 12:40:52;;;;;;;;;;;;;;;4.66;94.82;97084.47;4942460;29;19945;-80
2022/04/07 12:43:17;;;;;;;;;;;;;;;4.65;94.75;97090.69;4943641;29;20285;-81
2022/04/07 12:45:57;;;;;;;;;;;;;;;4.70;94.92;97091.25;4943378;29;20502;-82
2022/04/07 12:48:23;;;;;;;;;;;;;;;4.62;94.50;97085.63;4943100;29;20366;-80
2022/04/07 12:50:49;;;;;;;;;;;;;;;4.83;95.67;97073.78;4943220;28;19925;-83
2022/04/07 12:53:30;;;;;;;;;;;;;;;5.05;98.05;97061.94;4943096;29;19970;-82
2022/04/07 12:55:56;;;;;;;;;;;;;;;5.26;100.00;97075.47;4943608;29;19967;-81
2022/04/07 12:58:27;;;;;;;;;;;;;;;5.59;100.00;97084.75;4942276;29;19927;-82
2022/04/07 13:00:59;;;;;;;;;;;;;;;5.94;100.00;97106.03;4941591;28;19923;-83
2022/04/07 13:03:28;;;;;;;;;;;;;;;6.06;100.00;97109.66;4943099;29;20005;-82
2022/04/07 13:05:53;;;;;;;;;;;;;;;6.19;100.00;97109.72;4943291;28;19923;-83
2022/04/07 13:08:19;;;;;;;;;;;;;;;6.30;100.00;97120.34;4940883;29;20297;-81
2022/04/07 13:10:44;;;;;;;;;;;;;;;6.36;100.00;97148.81;4945809;28;19929;-82
2022/04/07 13:13:10;;;;;;;;;;;;;;;6.43;100.00;97144.00;4947691;29;20006;-84
2022/04/07 13:15:35;;;;;;;;;;;;;;;6.45;100.00;97136.03;4944641;29;19937;-83
2022/04/07 13:18:02;;;;;;;;;;;;;;;6.50;100.00;97139.16;4945736;29;19933;-81
2022/04/07 13:20:28;;;;;;;;;;;;;;;6.51;100.00;97136.44;4946782;29;19969;-83
2022/04/07 13:22:54;;;;;;;;;;;;;;;6.51;100.00;97135.56;4944517;29;19923;-81
2022/04/07 13:25:19;;;;;;;;;;;;;;;6.52;100.00;97127.56;4947697;29;20338;-83
2022/04/07 13:27:44;;;;;;;;;;;;;;;6.55;100.00;97129.16;4945909;29;19923;-83
2022/04/07 13:30:10;;;;;;;;;;;;;;;6.54;100.00;97115.19;4945764;29;20371;-84
2022/04/07 13:32:35;;;;;;;;;;;;;;;6.62;100.00;97133.06;4945718;29;19926;-82
2022/04/07 13:35:01;;;;;;;;;;;;;;;6.62;100.00;97122.56;4946447;29;20389;-84
2022/04/07 13:37:26;;;;;;;;;;;;;;;6.68;100.00;97122.09;4946461;29;19965;-82
2022/04/07 13:39:52;;;;;;;;;;;;;;;6.66;100.00;97118.75;4946039;29;19923;-82
2022/04/07 13:42:18;;;;;;;;;;;;;;;6.69;100.00;97121.16;4945603;28;20395;-83
2022/04/07 13:44:43;;;;;;;;;;;;;;;6.72;100.00;97130.66;4945120;29;19922;-83
2022/04/07 13:47:08;;;;;;;;;;;;;;;6.74;100.00;97141.91;4946202;29;19973;-83
2022/04/07 13:49:34;;;;;;;;;;;;;;;6.81;100.00;97174.75;4944432;29;19926;-82
2022/04/07 13:52:00;;;;;;;;;;;;;;;6.81;100.00;97179.16;4945648;29;19918;-82
2022/04/07 13:54:28;;;;;;;;;;;;;;;6.80;100.00;97178.31;4946424;28;19946;-84
2022/04/07 13:56:54;;;;;;;;;;;;;;;6.84;100.00;97184.22;4943630;29;19988;-83
2022/04/07 13:59:19;;;;;;;;;;;;;;;6.86;100.00;97195.47;4944805;28;20429;-78
2022/04/07 14:01:45;;;;;;;;;;;;;;;6.95;100.00;97175.56;4945277;28;19926;-80
2022/04/07 14:04:10;;;;;;;;;;;;;;;6.96;100.00;97182.53;4945276;29;20298;-83
2022/04/07 14:06:35;;;;;;;;;;;;;;;6.99;100.00;97192.81;4946489;29;19922;-81
2022/04/07 14:09:01;;;;;;;;;;;;;;;6.99;100.00;97191.06;4946373;29;19967;-81
2022/04/07 14:11:26;;;;;;;;;;;;;;;7.00;100.00;97194.53;4946337;28;19927;-81
2022/04/07 14:13:52;;;;;;;;;;;;;;;7.03;100.00;97204.84;4943963;29;19919;-83
2022/04/07 14:16:18;;;;;;;;;;;;;;;7.04;100.00;97214.44;4944976;29;19994;-82
2022/04/07 14:18:43;;;;;;;;;;;;;;;7.05;100.00;97209.06;4944411;29;20370;-82
2022/04/07 14:21:11;;;;;;;;;;;;;;;7.15;100.00;97209.25;4942027;29;20013;-78
2022/04/07 14:23:36;;;;;;;;;;;;;;;7.11;100.00;97197.25;4945100;29;19919;-81
2022/04/07 14:26:01;;;;;;;;;;;;;;;7.12;100.00;97203.38;4944393;29;19937;-84
2022/04/07 14:28:27;;;;;;;;;;;;;;;6.71;100.00;97194.75;4943864;29;19925;-81
2022/04/07 14:30:52;;;;;;;;;;;;;;;6.03;100.00;97201.91;4946177;29;19927;-82
2022/04/07 14:33:19;;;;;;;;;;;;;;;5.85;100.00;97203.88;4944566;29;19919;-83
2022/04/07 14:35:44;;;;;;;;;;;;;;;5.73;100.00;97220.47;4943683;29;20468;-82
2022/04/07 14:38:11;;;;;;;;;;;;;;;5.71;100.00;97211.81;4944329;28;20009;-81
2022/04/07 14:40:37;;;;;;;;;;;;;;;5.56;100.00;97217.09;4945743;28;20338;-81
2022/04/07 14:43:02;;;;;;;;;;;;;;;5.54;100.00;97218.16;4945562;29;19927;-82
2022/04/07 14:45:28;;;;;;;;;;;;;;;5.48;100.00;97222.00;4942674;29;19959;-82
2022/04/07 14:47:53;;;;;;;;;;;;;;;5.46;100.00;97221.28;4943647;29;19927;-81
2022/04/07 14:50:18;;;;;;;;;;;;;;;5.42;100.00;97217.97;4943785;29;19922;-78
2022/04/07 14:52:44;;;;;;;;;;;;;;;5.42;100.00;97231.09;4943812;29;19974;-80
2022/04/07 14:55:09;;;;;;;;;;;;;;;5.37;100.00;97221.84;4943124;29;19918;-82
2022/04/07 14:57:34;;;;;;;;;;;;;;;5.34;100.00;97222.88;4942242;29;19982;-80
2022/04/07 15:00:00;;;;;;;;;;;;;;;5.36;100.00;97228.03;4944784;29;19918;-82
2022/04/07 15:02:25;;;;;;;;;;;;;;;5.34;100.00;97227.28;4944123;29;20028;-83
2022/04/07 15:04:50;;;;;;;;;;;;;;;5.32;100.00;97235.25;4941776;28;19930;-82
2022/04/07 15:07:16;;;;;;;;;;;;;;;5.28;100.00;97239.00;4944079;29;19939;-81
2022/04/07 15:09:42;;;;;;;;;;;;;;;5.23;100.00;97252.44;4945313;29;19923;-80
2022/04/07 15:12:07;;;;;;;;;;;;;;;5.24;100.00;97250.66;4943298;29;19971;-82
2022/04/07 15:14:39;;;;;;;;;;;;;;;5.22;100.00;97261.25;4942492;29;20416;-80
2022/04/07 15:17:04;;;;;;;;;;;;;;;5.18;100.00;97262.34;4944525;29;19919;-81
2022/04/07 15:19:30;;;;;;;;;;;;;;;5.18;100.00;97277.28;4944926;29;19923;-82
2022/04/07 15:21:55;;;;;;;;;;;;;;;5.13;100.00;97269.66;4944283;29;20290;-82
2022/04/07 15:24:20;;;;;;;;;;;;;;;5.16;100.00;97269.47;4944363;29;19926;-82
2022/04/07 15:26:46;;;;;;;;;;;;;;;5.13;100.00;97277.53;4943083;29;19926;-82
2022/04/07 15:29:12;;;;;;;;;;;;;;;5.12;100.00;97291.59;4940336;29;20010;-81
2022/04/07 15:31:37;;;;;;;;;;;;;;;5.04;100.00;97293.84;4943643;29;19927;-80
2022/04/07 15:34:02;;;;;;;;;;;;;;;5.05;100.00;97290.28;4943233;28;19974;-81
2022/04/07 15:36:27;;;;;;;;;;;;;;;5.05;100.00;97292.91;4945183;29;19918;-82
2022/04/07 15:38:53;;;;;;;;;;;;;;;5.44;100.00;97301.91;4939231;29;19958;-81
2022/04/07 15:41:18;;;;;;;;;;;;;;;5.21;100.00;97317.31;4942540;29;19969;-81
2022/04/07 15:43:44;;;;;;;;;;;;;;;5.07;100.00;97314.66;4942061;28;19931;-80
2022/04/07 15:46:10;;;;;;;;;;;;;;;5.08;100.00;97337.34;4943223;29;20378;-81
2022/04/07 15:48:35;;;;;;;;;;;;;;;5.07;99.91;97319.91;4940672;29;19923;-80
2022/04/07 15:51:00;;;;;;;;;;;;;;;5.03;99.58;97336.78;4943757;29;19926;-80
2022/04/07 15:53:26;;;;;;;;;;;;;;;5.05;99.53;97332.28;4944652;28;19923;-81
2022/04/07 15:55:52;;;;;;;;;;;;;;;5.00;99.03;97329.09;4944100;29;19922;-81
2022/04/07 15:58:17;;;;;;;;;;;;;;;4.99;98.87;97324.78;4941190;29;19964;-84
2022/04/07 16:00:42;;;;;;;;;;;;;;;4.96;98.66;97338.06;4941722;28;19961;-81
2022/04/07 16:03:08;;;;;;;;;;;;;;;4.98;98.46;97325.69;4942124;29;20009;-81
2022/04/07 16:05:33;;;;;;;;;;;;;;;4.91;97.66;97326.09;4943217;29;19930;-81
2022/04/07 16:07:58;;;;;;;;;;;;;;;4.86;97.34;97333.38;4942493;28;19922;-80
2022/04/07 16:10:24;;;;;;;;;;;;;;;4.87;97.02;97334.22;4943004;28;19923;-81
2022/04/07 16:12:49;;;;;;;;;;;;;;;4.86;96.54;97349.09;4943052;29;19952;-82
2022/04/07 16:15:15;;;;;;;;;;;;;;;4.83;96.39;97348.44;4941859;29;20397;-81
2022/04/07 16:17:40;;;;;;;;;;;;;;;4.85;96.17;97357.06;4943238;29;19970;-81
2022/04/07 16:20:06;;;;;;;;;;;;;;;4.85;96.40;97355.31;4944457;29;19926;-81
2022/04/07 16:22:33;;;;;;;;;;;;;;;4.95;96.58;97378.41;4942157;29;20275;-81
2022/04/07 16:24:58;;;;;;;;;;;;;;;4.87;96.11;97366.56;4942564;29;19929;-81
2022/04/07 16:27:23;;;;;;;;;;;;;;;4.88;95.53;97384.00;4942955;29;19938;-80
2022/04/07 16:29:49;;;;;;;;;;;;;;;4.82;95.29;97388.72;4943196;28;19926;-81
2022/04/07 16:32:14;;;;;;;;;;;;;;;4.76;94.94;97389.94;4941450;29;19926;-81
2022/04/07 16:34:39;;;;;;;;;;;;;;;4.77;94.71;97383.78;4941946;29;19949;-82
2022/04/07 16:37:04;;;;;;;;;;;;;;;4.73;94.38;97395.38;4941217;29;19931;-82
2022/04/07 16:39:30;;;;;;;;;;;;;;;4.76;94.44;97395.19;4941489;29;19926;-82
2022/04/07 16:41:55;;;;;;;;;;;;;;;4.83;94.49;97412.25;4941266;29;19923;-81
2022/04/07 16:44:20;;;;;;;;;;;;;;;4.77;93.99;97404.75;4940993;28;20020;-81
2022/04/07 16:46:45;;;;;;;;;;;;;;;4.68;93.55;97415.78;4944182;29;19982;-81
2022/04/07 16:49:12;;;;;;;;;;;;;;;4.64;93.19;97417.72;4946576;29;19935;-81
2022/04/07 16:51:37;;;;;;;;;;;;;;;4.65;93.04;97419.41;4947120;29;19919;-82
2022/04/07 16:54:02;;;;;;;;;;;;;;;4.68;93.09;97423.66;4945268;29;19938;-81
2022/04/07 16:56:29;;;;;;;;;;;;;;;4.62;92.97;97439.72;4945802;29;19919;-80
2022/04/07 16:58:55;;;;;;;;;;;;;;;4.67;92.84;97428.03;4944834;29;20386;-81
2022/04/07 17:01:21;;;;;;;;;;;;;;;4.65;92.91;97435.16;4944498;29;19922;-80
2022/04/07 17:03:46;;;;;;;;;;;;;;;4.66;92.71;97446.47;4946066;28;19927;-80
2022/04/07 17:06:11;;;;;;;;;;;;;;;4.66;92.44;97444.72;4945487;29;19922;-81
2022/04/07 17:08:36;;;;;;;;;;;;;;;4.65;92.36;97450.03;4947377;29;19923;-81
2022/04/07 17:11:04;;;;;;;;;;;;;;;4.60;92.03;97462.59;4945289;29;20374;-82
2022/04/07 17:13:30;;;;;;;;;;;;;;;4.61;91.97;97462.50;4945358;28;19977;-81
2022/04/07 17:15:55;;;;;;;;;;;;;;;4.62;91.92;97463.34;4945979;29;19923;-82
2022/04/07 17:18:21;;;;;;;;;;;;;;;4.57;91.40;97457.50;4947815;29;19922;-82
2022/04/07 17:20:48;;;;;;;;;;;;;;;4.61;91.48;97470.38;4944659;29;19948;-82
2022/04/07 17:23:14;;;;;;;;;;;;;;;4.59;91.27;97471.38;4945085;29;20001;-81
2022/04/07 17:25:39;;;;;;;;;;;;;;;4.53;90.75;97486.53;4946972;29;19922;-81
2022/04/07 17:28:04;;;;;;;;;;;;;;;4.52;90.53;97492.69;4945850;29;20001;-81
2022/04/07 17:30:29;;;;;;;;;;;;;;;4.52;90.42;97489.22;4944982;29;19926;-79
2022/04/07 17:32:58;;;;;;;;;;;;;;;4.53;90.32;97490.91;4945907;29;20358;-81
2022/04/07 17:35:24;;;;;;;;;;;;;;;4.49;90.17;97502.50;4947684;29;19940;-81
2022/04/07 17:37:49;;;;;;;;;;;;;;;4.46;90.21;97506.13;4946970;29;19919;-81
2022/04/07 17:40:15;;;;;;;;;;;;;;;4.50;90.39;97518.16;4945542;29;19932;-80
2022/04/07 17:42:40;;;;;;;;;;;;;;;4.48;90.32;97512.16;4945170;29;19977;-82
2022/04/07 17:45:06;;;;;;;;;;;;;;;4.42;89.93;97512.50;4944701;29;19974;-80
2022/04/07 17:47:32;;;;;;;;;;;;;;;4.40;89.70;97518.72;4946836;28;19942;-79
2022/04/07 17:49:57;;;;;;;;;;;;;;;4.40;89.83;97514.31;4945919;29;19929;-79
2022/04/07 17:52:23;;;;;;;;;;;;;;;4.41;89.61;97534.38;4943534;29;19922;-80
2022/04/07 17:54:51;;;;;;;;;;;;;;;4.36;89.50;97529.38;4946766;28;20286;-80
2022/04/07 17:57:17;;;;;;;;;;;;;;;4.35;89.51;97537.31;4943103;29;19934;-79
2022/04/07 17:59:42;;;;;;;;;;;;;;;4.30;89.38;97544.59;4944994;29;20488;-81
2022/04/07 18:02:07;;;;;;;;;;;;;;;4.33;89.46;97544.44;4946122;29;20021;-80
2022/04/07 18:04:33;;;;;;;;;;;;;;;4.31;89.47;97556.78;4941627;29;19946;-80
2022/04/07 18:06:58;;;;;;;;;;;;;;;4.27;89.49;97560.50;4944391;29;20017;-80
2022/04/07 18:09:23;;;;;;;;;;;;;;;4.27;89.43;97560.50;4944069;29;19930;-79
2022/04/07 18:11:48;;;;;;;;;;;;;;;4.27;89.27;97563.94;4944425;29;19923;-79
2022/04/07 18:14:14;;;;;;;;;;;;;;;4.33;89.37;97568.03;4940656;29;20267;-79
2022/04/07 18:16:39;;;;;;;;;;;;;;;4.31;89.49;97572.53;4944641;29;19922;-80
2022/04/07 18:19:04;;;;;;;;;;;;;;;4.33;89.54;97573.28;4945353;29;20009;-81
2022/04/07 18:21:31;;;;;;;;;;;;;;;4.32;89.54;97582.06;4945711;29;19929;-79
2022/04/07 18:23:57;;;;;;;;;;;;;;;4.29;89.45;97582.22;4942912;28;20416;-80
2022/04/07 18:26:22;;;;;;;;;;;;;;;4.29;89.54;97600.56;4944267;29;19927;-79
2022/04/07 18:28:47;;;;;;;;;;;;;;;4.32;89.61;97600.41;4942456;29;19923;-81
2022/04/07 18:31:12;;;;;;;;;;;;;;;4.32;89.45;97611.78;4944155;29;19937;-78
2022/04/07 18:33:38;;;;;;;;;;;;;;;4.30;89.63;97625.88;4944615;29;21709;-79
2022/04/07 18:36:04;;;;;;;;;;;;;;;4.28;89.62;97620.72;4944429;29;20286;-79
2022/04/07 18:38:30;;;;;;;;;;;;;;;4.30;89.53;97610.97;4944170;29;19970;-79
2022/04/07 18:40:55;;;;;;;;;;;;;;;4.27;89.23;97634.75;4942699;29;19981;-79
2022/04/07 18:43:20;;;;;;;;;;;;;;;4.24;89.22;97663.72;4941395;29;19961;-80
2022/04/07 18:45:46;;;;;;;;;;;;;;;4.24;89.29;97650.63;4942045;29;19974;-79
2022/04/07 18:48:11;;;;;;;;;;;;;;;4.25;89.41;97641.00;4942972;29;19926;-79
2022/04/07 18:50:36;;;;;;;;;;;;;;;4.24;89.25;97655.88;4943038;29;19929;-80
2022/04/07 18:53:02;;;;;;;;;;;;;;;4.23;89.23;97650.69;4943255;29;20330;-80
2022/04/07 18:55:28;;;;;;;;;;;;;;;4.24;89.16;97660.28;4942078;29;19945;-81
2022/04/07 18:57:53;;;;;;;;;;;;;;;4.24;89.36;97668.13;4943339;29;19964;-80
2022/04/07 19:00:19;;;;;;;;;;;;;;;4.21;88.99;97671.75;4942007;28;19929;-80
2022/04/07 19:02:44;;;;;;;;;;;;;;;4.23;88.86;97674.28;4943474;29;19942;-81
2022/04/07 19:05:12;;;;;;;;;;;;;;;4.19;88.79;97684.09;4941695;29;19985;-80
2022/04/07 19:07:37;;;;;;;;;;;;;;;4.19;88.55;97684.94;4943408;28;20013;-80
2022/04/07 19:10:04;;;;;;;;;;;;;;;4.18;88.29;97687.66;4942648;29;20454;-80
2022/04/07 19:12:29;;;;;;;;;;;;;;;4.18;88.20;97706.00;4944058;29;19940;-81
2022/04/07 19:14:56;;;;;;;;;;;;;;;4.16;88.14;97708.72;4940415;29;19987;-81
2022/04/07 19:17:21;;;;;;;;;;;;;;;4.12;88.06;97709.78;4942469;29;19929;-81
2022/04/07 19:19:50;;;;;;;;;;;;;;;4.16;88.16;97716.56;4942166;29;19979;-82
2022/04/07 19:22:16;;;;;;;;;;;;;;;4.18;88.33;97729.59;4941817;28;19922;-80
2022/04/07 19:24:44;;;;;;;;;;;;;;;4.13;88.28;97736.81;4942011;29;19923;-81
2022/04/07 19:27:09;;;;;;;;;;;;;;;4.10;88.10;97748.31;4943249;29;19919;-81
2022/04/07 19:29:35;;;;;;;;;;;;;;;4.12;88.19;97753.50;4941939;28;19923;-81
2022/04/07 19:32:00;;;;;;;;;;;;;;;4.09;88.32;97754.47;4943230;29;19933;-82
2022/04/07 19:34:26;;;;;;;;;;;;;;;4.09;88.41;97759.72;4940223;29;20013;-80
2022/04/07 19:36:51;;;;;;;;;;;;;;;4.11;88.49;97767.50;4941270;29;19955;-81
2022/04/07 19:39:17;;;;;;;;;;;;;;;4.11;88.44;97770.13;4942129;29;19926;-80
2022/04/07 19:41:42;;;;;;;;;;;;;;;4.15;88.70;97783.00;4941281;29;19923;-81
2022/04/07 19:44:08;;;;;;;;;;;;;;;4.18;88.82;97790.72;4942534;29;20046;-80
2022/04/07 19:46:33;;;;;;;;;;;;;;;4.11;88.86;97796.34;4943286;29;19918;-81
2022/04/07 19:48:59;;;;;;;;;;;;;;;4.14;88.48;97797.03;4942031;29;20365;-81
2022/04/07 19:51:25;;;;;;;;;;;;;;;4.07;88.33;97793.03;4941010;29;19937;-80
2022/04/07 19:53:50;;;;;;;;;;;;;;;4.04;88.08;97811.53;4942365;29;19934;-80